createdAt,value
2023-04-08T00:00:57.843Z,8.75
2023-04-08T00:03:24.640Z,9.18
2023-04-08T00:05:51.403Z,8.05
2023-04-08T00:08:18.287Z,9.13
2023-04-08T00:10:44.918Z,8.07
2023-04-08T00:13:11.742Z,8.48
2023-04-08T00:15:38.387Z,8.20
2023-04-08T00:18:06.924Z,8.48
2023-04-08T00:20:34.128Z,8.45
2023-04-08T00:23:00.907Z,8.68
2023-04-08T00:25:27.630Z,9.25
2023-04-08T00:27:54.255Z,8.85
2023-04-08T00:30:21.582Z,9.20
2023-04-08T00:32:48.346Z,9.40
2023-04-08T00:35:15.484Z,8.43
2023-04-08T00:37:42.380Z,9.55
2023-04-08T00:40:09.512Z,9.13
2023-04-08T00:42:36.705Z,8.95
2023-04-08T00:45:03.845Z,9.23
2023-04-08T00:47:30.743Z,8.68
2023-04-08T00:49:57.596Z,9.20
2023-04-08T00:52:24.228Z,9.48
2023-04-08T00:54:50.960Z,9.85
2023-04-08T00:57:18.619Z,10.13
2023-04-08T00:59:45.358Z,9.75
2023-04-08T01:02:19.416Z,10.38
2023-04-08T01:04:59.802Z,9.73
2023-04-08T01:07:41.395Z,9.32
2023-04-08T01:10:16.081Z,9.23
2023-04-08T01:12:50.299Z,9.35
2023-04-08T01:15:17.723Z,8.63
2023-04-08T01:17:45.732Z,10.20
2023-04-08T01:20:15.064Z,9.73
2023-04-08T01:23:00.130Z,9.63
2023-04-08T01:25:35.663Z,9.40
2023-04-08T01:28:06.867Z,9.02
2023-04-08T01:30:35.794Z,10.57
2023-04-08T01:33:04.071Z,11.35
2023-04-08T01:35:31.648Z,10.10
2023-04-08T01:37:59.532Z,9.88
2023-04-08T01:40:26.540Z,9.73
2023-04-08T01:42:57.664Z,10.38
2023-04-08T01:45:25.652Z,9.50
2023-04-08T01:47:53.512Z,10.25
2023-04-08T01:50:21.474Z,9.57
2023-04-08T01:52:49.899Z,10.10
2023-04-08T01:55:17.437Z,10.27
2023-04-08T01:57:49.892Z,9.70
2023-04-08T02:00:20.591Z,9.43
2023-04-08T02:02:48.548Z,9.98
2023-04-08T02:05:15.613Z,10.35
2023-04-08T02:07:42.378Z,9.73
2023-04-08T02:10:09.603Z,9.60
2023-04-08T02:12:36.438Z,9.00
2023-04-08T02:15:03.535Z,8.75
2023-04-08T02:17:43.562Z,8.77
2023-04-08T02:20:19.075Z,7.47
2023-04-08T02:22:57.818Z,8.82
2023-04-08T02:25:26.202Z,8.07
2023-04-08T02:27:54.802Z,7.38
2023-04-08T02:30:22.583Z,7.50
2023-04-08T02:32:50.385Z,7.07
2023-04-08T02:35:18.026Z,6.43
2023-04-08T02:37:47.963Z,5.85
2023-04-08T02:40:23.925Z,6.18
2023-04-08T02:42:50.636Z,5.93
2023-04-08T02:45:18.126Z,6.68
2023-04-08T02:47:44.840Z,5.32
2023-04-08T02:50:11.574Z,5.25
2023-04-08T02:52:38.340Z,4.50
2023-04-08T02:55:10.052Z,4.55
2023-04-08T02:57:37.904Z,4.63
2023-04-08T03:00:05.423Z,4.97
2023-04-08T03:02:32.204Z,4.75
2023-04-08T03:04:59.319Z,4.53
2023-04-08T03:07:26.268Z,3.97
2023-04-08T03:09:55.132Z,4.03
2023-04-08T03:12:22.404Z,3.90
2023-04-08T03:14:50.016Z,4.05
2023-04-08T03:17:17.074Z,4.00
2023-04-08T03:19:43.713Z,3.60
2023-04-08T03:22:10.396Z,3.50
2023-04-08T03:24:37.395Z,3.88
2023-04-08T03:27:04.207Z,3.58
2023-04-08T03:29:31.122Z,3.22
2023-04-08T03:31:58.107Z,3.13
2023-04-08T03:34:24.835Z,3.17
2023-04-08T03:36:51.574Z,3.45
2023-04-08T03:39:19.862Z,3.53
2023-04-08T03:41:46.530Z,3.40
2023-04-08T03:44:13.171Z,3.90
2023-04-08T03:46:39.864Z,3.67
2023-04-08T03:49:07.418Z,4.18
2023-04-08T03:51:34.208Z,4.75
2023-04-08T03:54:00.944Z,4.32
2023-04-08T03:56:27.722Z,5.47
2023-04-08T03:58:54.424Z,5.50
2023-04-08T04:01:21.217Z,6.88
2023-04-08T04:03:48.059Z,5.63
2023-04-08T04:06:14.846Z,5.80
2023-04-08T04:08:41.537Z,5.72
2023-04-08T04:11:08.231Z,5.97
2023-04-08T04:13:35.619Z,5.60
2023-04-08T04:16:02.342Z,6.05
2023-04-08T04:18:29.142Z,5.63
2023-04-08T04:20:55.962Z,6.57
2023-04-08T04:23:24.447Z,6.65
2023-04-08T04:25:51.159Z,6.80
2023-04-08T04:28:17.859Z,6.47
2023-04-08T04:30:44.673Z,7.97
2023-04-08T04:33:11.380Z,8.48
2023-04-08T04:35:39.786Z,8.60
2023-04-08T04:38:11.011Z,8.68
2023-04-08T04:40:37.758Z,8.70
2023-04-08T04:43:04.652Z,8.73
2023-04-08T04:45:31.338Z,8.82
2023-04-08T04:47:58.097Z,8.73
2023-04-08T04:50:24.888Z,9.75
2023-04-08T04:52:51.494Z,9.48
2023-04-08T04:55:18.350Z,9.43
2023-04-08T04:57:45.116Z,9.70
2023-04-08T05:00:12.283Z,9.88
2023-04-08T05:02:39.116Z,9.55
2023-04-08T05:05:06.691Z,9.35
2023-04-08T05:07:37.067Z,9.90
2023-04-08T05:10:04.673Z,10.02
2023-04-08T05:12:31.503Z,9.18
2023-04-08T05:14:59.625Z,9.73
2023-04-08T05:17:26.617Z,9.63
2023-04-08T05:19:53.699Z,9.25
2023-04-08T05:22:20.474Z,9.77
2023-04-08T05:24:47.117Z,9.43
2023-04-08T05:27:13.777Z,9.75
2023-04-08T05:29:40.434Z,9.65
2023-04-08T05:32:07.326Z,10.25
2023-04-08T05:34:34.039Z,10.05
2023-04-08T05:37:00.898Z,9.32
2023-04-08T05:39:27.600Z,10.48
2023-04-08T05:41:54.361Z,9.63
2023-04-08T05:44:21.041Z,8.75
2023-04-08T05:46:47.814Z,9.15
2023-04-08T05:49:14.461Z,9.98
2023-04-08T05:51:41.199Z,9.95
2023-04-08T05:54:07.873Z,9.48
2023-04-08T05:56:35.061Z,10.15
2023-04-08T05:59:01.714Z,10.68
2023-04-08T06:01:28.360Z,9.90
2023-04-08T06:03:56.616Z,10.60
2023-04-08T06:06:23.991Z,10.55
2023-04-08T06:08:50.818Z,11.35
2023-04-08T06:11:17.862Z,10.10
2023-04-08T06:13:44.491Z,9.88
2023-04-08T06:16:19.600Z,10.60
2023-04-08T06:18:48.229Z,10.43
2023-04-08T06:21:15.396Z,10.35
2023-04-08T06:23:42.056Z,10.70
2023-04-08T06:26:08.746Z,9.85
2023-04-08T06:28:35.585Z,10.60
2023-04-08T06:31:02.276Z,10.35
2023-04-08T06:33:29.026Z,10.15
2023-04-08T06:36:06.650Z,9.90
2023-04-08T06:38:33.809Z,10.25
2023-04-08T06:41:04.995Z,10.55
2023-04-08T06:43:32.324Z,9.88
2023-04-08T06:45:59.434Z,9.88
2023-04-08T06:48:30.732Z,9.95
2023-04-08T06:50:58.864Z,10.20
2023-04-08T06:53:26.470Z,9.35
2023-04-08T06:55:53.317Z,9.52
2023-04-08T06:58:20.116Z,10.10
2023-04-08T07:00:47.425Z,10.40
2023-04-08T07:03:14.290Z,9.98
2023-04-08T07:05:42.233Z,9.10
2023-04-08T07:08:09.174Z,9.35
2023-04-08T07:10:36.315Z,9.85
2023-04-08T07:13:04.163Z,10.45
2023-04-08T07:15:31.231Z,10.05
2023-04-08T07:17:58.940Z,9.50
2023-04-08T07:20:26.245Z,9.70
2023-04-08T07:22:52.952Z,10.13
2023-04-08T07:25:19.731Z,9.18
2023-04-08T07:27:46.637Z,9.20
2023-04-08T07:30:13.380Z,8.82
2023-04-08T07:32:40.156Z,9.30
2023-04-08T07:35:07.232Z,9.40
2023-04-08T07:37:33.969Z,10.40
2023-04-08T07:40:00.894Z,10.00
2023-04-08T07:42:27.620Z,10.32
2023-04-08T07:44:54.462Z,10.15
2023-04-08T07:47:21.257Z,9.50
2023-04-08T07:49:48.495Z,9.18
2023-04-08T07:52:15.812Z,8.63
2023-04-08T07:54:42.658Z,9.70
2023-04-08T07:57:09.338Z,10.20
2023-04-08T07:59:36.241Z,9.73
2023-04-08T08:02:03.493Z,10.68
2023-04-08T08:04:30.525Z,9.32
2023-04-08T08:06:57.263Z,10.40
2023-04-08T08:09:24.098Z,9.65
2023-04-08T08:11:50.908Z,9.60
2023-04-08T08:14:17.619Z,9.10
2023-04-08T08:16:44.757Z,8.57
2023-04-08T08:19:12.443Z,8.32
2023-04-08T08:21:39.720Z,9.32
2023-04-08T08:24:07.025Z,9.30
2023-04-08T08:26:39.672Z,9.50
2023-04-08T08:29:08.744Z,9.32
2023-04-08T08:31:35.840Z,9.13
2023-04-08T08:34:03.002Z,8.98
2023-04-08T08:36:29.723Z,9.43
2023-04-08T08:38:56.459Z,9.77
2023-04-08T08:41:23.367Z,8.48
2023-04-08T08:43:50.555Z,9.45
2023-04-08T08:46:19.436Z,8.98
2023-04-08T08:48:46.599Z,9.10
2023-04-08T08:51:14.695Z,8.20
2023-04-08T08:53:45.648Z,8.85
2023-04-08T08:58:42.063Z,9.15
2023-04-08T09:01:35.299Z,7.78
2023-04-08T09:04:22.832Z,7.95
2023-04-08T09:06:51.693Z,7.55
2023-04-08T09:09:18.510Z,8.25
2023-04-08T09:11:47.257Z,8.40
2023-04-08T09:14:26.370Z,9.77
2023-04-08T09:16:53.611Z,8.90
2023-04-08T09:19:20.783Z,8.07
2023-04-08T09:22:04.964Z,8.32
2023-04-08T09:24:32.091Z,8.85
2023-04-08T09:26:58.982Z,8.40
2023-04-08T09:29:28.137Z,8.30
2023-04-08T09:31:58.573Z,7.97
2023-04-08T09:34:27.529Z,8.13
2023-04-08T09:36:56.080Z,8.82
2023-04-08T09:39:23.010Z,8.25
2023-04-08T09:41:51.889Z,7.80
2023-04-08T09:44:21.385Z,9.00
2023-04-08T09:46:51.728Z,8.73
2023-04-08T09:49:31.367Z,8.45
2023-04-08T09:52:11.891Z,8.70
2023-04-08T09:54:48.024Z,8.75
2023-04-08T09:57:20.593Z,7.72
2023-04-08T09:59:56.699Z,8.32
2023-04-08T10:02:31.181Z,8.40
2023-04-08T10:05:00.227Z,8.50
2023-04-08T10:07:27.062Z,8.77
2023-04-08T10:09:53.992Z,8.27
2023-04-08T10:12:20.978Z,8.13
2023-04-08T10:15:22.579Z,8.32
2023-04-08T10:17:49.294Z,8.60
2023-04-08T10:20:36.361Z,8.82
2023-04-08T10:23:07.815Z,8.55
2023-04-08T10:25:41.655Z,8.15
2023-04-08T10:28:11.443Z,8.70
2023-04-08T10:30:43.489Z,8.32
2023-04-08T10:33:40.877Z,8.90
2023-04-08T10:36:09.710Z,8.55
2023-04-08T10:38:36.558Z,8.05
2023-04-08T10:41:03.705Z,8.77
2023-04-08T10:43:34.568Z,7.97
2023-04-08T10:46:02.059Z,7.45
2023-04-08T10:48:31.549Z,8.10
2023-04-08T10:50:59.677Z,8.20
2023-04-08T10:53:36.935Z,7.88
2023-04-08T10:56:06.276Z,7.78
2023-04-08T10:58:33.765Z,9.20
2023-04-08T11:01:06.648Z,8.73
2023-04-08T11:03:35.196Z,8.75
2023-04-08T11:06:03.029Z,8.38
2023-04-08T11:08:30.975Z,8.55
2023-04-08T11:10:58.685Z,8.60
2023-04-08T11:13:25.994Z,8.02
2023-04-08T11:15:52.849Z,8.40
2023-04-08T11:18:21.806Z,7.88
2023-04-08T11:20:51.388Z,7.22
2023-04-08T11:23:18.724Z,8.10
2023-04-08T11:25:47.003Z,8.27
2023-04-08T11:28:14.727Z,7.95
2023-04-08T11:30:42.148Z,8.18
2023-04-08T11:33:09.580Z,8.65
2023-04-08T11:35:41.715Z,8.82
2023-04-08T11:38:09.665Z,8.95
2023-04-08T11:40:36.419Z,8.75
2023-04-08T11:43:15.460Z,7.55
2023-04-08T11:45:42.954Z,7.57
2023-04-08T11:48:10.801Z,8.13
2023-04-08T11:50:37.450Z,8.50
2023-04-08T11:53:04.311Z,8.40
2023-04-08T11:55:32.359Z,8.27
2023-04-08T11:58:04.342Z,7.07
2023-04-08T12:00:31.450Z,6.97
2023-04-08T12:02:58.354Z,7.07
2023-04-08T12:05:25.112Z,6.55
2023-04-08T12:07:51.897Z,7.38
2023-04-08T12:10:18.640Z,6.72
2023-04-08T12:12:45.430Z,7.40
2023-04-08T12:15:12.268Z,7.07
2023-04-08T12:17:39.069Z,7.20
2023-04-08T12:20:06.921Z,6.75
2023-04-08T12:22:33.833Z,7.43
2023-04-08T12:25:00.540Z,6.80
2023-04-08T12:27:27.211Z,7.07
2023-04-08T12:29:53.929Z,6.90
2023-04-08T12:32:20.752Z,7.07
2023-04-08T12:34:47.592Z,6.63
2023-04-08T12:37:14.273Z,6.80
2023-04-08T12:39:40.952Z,6.72
2023-04-08T12:42:07.990Z,6.82
2023-04-08T12:44:34.946Z,7.38
2023-04-08T12:47:01.677Z,7.20
2023-04-08T12:49:28.370Z,6.00
2023-04-08T12:51:55.141Z,6.13
2023-04-08T12:54:21.930Z,6.07
2023-04-08T12:56:49.024Z,5.57
2023-04-08T12:59:16.121Z,6.22
2023-04-08T13:01:43.346Z,6.18
2023-04-08T13:04:10.119Z,6.30
2023-04-08T13:06:36.843Z,7.30
2023-04-08T13:09:03.559Z,6.15
2023-04-08T13:11:30.225Z,6.03
2023-04-08T13:13:56.921Z,6.53
2023-04-08T13:16:23.646Z,6.38
2023-04-08T13:18:50.630Z,6.63
2023-04-08T13:21:17.448Z,5.90
2023-04-08T13:23:44.171Z,5.90
2023-04-08T13:26:10.832Z,6.32
2023-04-08T13:28:46.688Z,5.65
2023-04-08T13:31:23.046Z,5.47
2023-04-08T13:33:49.704Z,5.93
2023-04-08T13:36:16.472Z,5.70
2023-04-08T13:38:43.803Z,5.45
2023-04-08T13:41:10.486Z,5.75
2023-04-08T13:43:37.358Z,5.35
2023-04-08T13:46:04.046Z,4.80
2023-04-08T13:48:30.897Z,4.78
2023-04-08T13:50:57.585Z,4.97
2023-04-08T13:53:24.331Z,5.30
2023-04-08T13:55:55.084Z,4.35
2023-04-08T13:58:24.315Z,4.70
2023-04-08T14:00:52.093Z,4.72
2023-04-08T14:03:19.433Z,4.82
2023-04-08T14:05:46.205Z,4.75
2023-04-08T14:08:13.722Z,5.35
2023-04-08T14:10:42.339Z,5.55
2023-04-08T14:13:09.407Z,5.03
2023-04-08T14:15:36.256Z,4.88
2023-04-08T14:18:03.362Z,5.40
2023-04-08T14:20:30.186Z,4.90
2023-04-08T14:22:56.996Z,5.28
2023-04-08T14:25:24.464Z,4.93
2023-04-08T14:27:58.587Z,4.78
2023-04-08T14:30:27.269Z,5.43
2023-04-08T14:32:54.814Z,5.60
2023-04-08T14:35:21.869Z,5.22
2023-04-08T14:37:48.528Z,4.68
2023-04-08T14:40:15.141Z,4.70
2023-04-08T14:42:42.064Z,5.10
2023-04-08T14:45:09.178Z,5.10
2023-04-08T14:47:36.050Z,5.10
2023-04-08T14:50:02.872Z,5.00
2023-04-08T14:52:29.626Z,5.00
2023-04-08T14:54:56.392Z,6.25
2023-04-08T14:57:23.045Z,5.80
2023-04-08T14:59:49.737Z,5.20
2023-04-08T15:02:16.545Z,5.68
2023-04-08T15:04:43.250Z,5.60
2023-04-08T15:07:10.031Z,6.05
2023-04-08T15:09:36.627Z,5.95
2023-04-08T15:12:03.396Z,6.40
2023-04-08T15:14:30.030Z,6.18
2023-04-08T15:16:56.787Z,6.15
2023-04-08T15:19:23.779Z,6.07
2023-04-08T15:21:50.783Z,5.78
2023-04-08T15:24:17.642Z,6.18
2023-04-08T15:26:44.364Z,6.05
2023-04-08T15:29:11.075Z,5.93
2023-04-08T15:31:37.914Z,6.32
2023-04-08T15:34:04.722Z,5.70
2023-04-08T15:36:31.507Z,5.97
2023-04-08T15:38:58.245Z,5.82
2023-04-08T15:41:24.965Z,5.93
2023-04-08T15:43:53.173Z,6.25
2023-04-08T15:46:23.570Z,5.47
2023-04-08T15:48:50.787Z,6.50
2023-04-08T15:51:18.136Z,5.93
2023-04-08T15:53:44.922Z,6.40
2023-04-08T15:56:16.332Z,7.10
2023-04-08T16:01:11.311Z,6.20
2023-04-08T16:03:38.787Z,6.47
2023-04-08T16:06:08.748Z,6.55
2023-04-08T16:08:35.515Z,6.57
2023-04-08T16:11:04.019Z,6.00
2023-04-08T16:13:31.352Z,6.22
2023-04-08T16:16:01.071Z,6.72
2023-04-08T16:18:28.436Z,6.20
2023-04-08T16:20:55.829Z,6.72
2023-04-08T16:23:23.021Z,5.82
2023-04-08T16:25:49.679Z,6.03
2023-04-08T16:28:16.371Z,5.90
2023-04-08T16:30:44.095Z,5.47
2023-04-08T16:33:14.079Z,5.85
2023-04-08T16:35:40.803Z,5.82
2023-04-08T16:38:07.477Z,6.43
2023-04-08T16:40:34.694Z,6.18
2023-04-08T16:43:02.282Z,5.13
2023-04-08T16:45:30.115Z,5.20
2023-04-08T16:47:57.401Z,6.05
2023-04-08T16:50:24.694Z,5.30
2023-04-08T16:52:51.729Z,5.28
2023-04-08T16:55:19.380Z,5.18
2023-04-08T16:57:46.331Z,5.32
2023-04-08T17:00:13.494Z,5.80
2023-04-08T17:02:40.430Z,5.80
2023-04-08T17:05:07.580Z,5.75
2023-04-08T17:07:34.409Z,5.55
2023-04-08T17:10:01.051Z,5.82
2023-04-08T17:12:27.813Z,6.05
2023-04-08T17:14:54.577Z,6.28
2023-04-08T17:17:21.622Z,5.45
2023-04-08T17:19:48.529Z,5.72
2023-04-08T17:22:15.384Z,5.72
2023-04-08T17:24:42.117Z,5.55
2023-04-08T17:27:08.774Z,6.07
2023-04-08T17:29:35.745Z,6.00
2023-04-08T17:32:02.707Z,5.85
2023-04-08T17:34:31.286Z,5.75
2023-04-08T17:36:58.042Z,5.60
2023-04-08T17:39:24.940Z,5.88
2023-04-08T17:41:51.736Z,5.90
2023-04-08T17:44:18.387Z,5.32
2023-04-08T17:46:45.086Z,5.82
2023-04-08T17:49:12.860Z,6.15
2023-04-08T17:51:39.730Z,6.40
2023-04-08T17:54:06.397Z,6.13
2023-04-08T17:56:33.454Z,6.00
2023-04-08T17:59:00.421Z,6.25
2023-04-08T18:01:27.360Z,6.30
2023-04-08T18:03:54.481Z,6.05
2023-04-08T18:06:21.509Z,5.63
2023-04-08T18:08:48.405Z,6.60
2023-04-08T18:11:15.184Z,6.20
2023-04-08T18:13:42.040Z,5.97
2023-04-08T18:16:19.287Z,6.07
2023-04-08T18:18:46.953Z,5.82
2023-04-08T18:21:15.216Z,5.97
2023-04-08T18:23:42.166Z,6.40
2023-04-08T18:26:09.361Z,6.22
2023-04-08T18:28:36.312Z,5.57
2023-04-08T18:31:03.067Z,6.07
2023-04-08T18:33:29.756Z,8.02
2023-04-08T18:35:58.928Z,7.22
2023-04-08T18:38:26.667Z,6.40
2023-04-08T18:40:53.360Z,6.07
2023-04-08T18:43:20.089Z,6.38
2023-04-08T18:45:46.788Z,6.10
2023-04-08T18:48:13.548Z,6.60
2023-04-08T18:50:40.478Z,5.57
2023-04-08T18:53:08.034Z,5.80
2023-04-08T18:55:38.934Z,6.05
2023-04-08T18:58:05.688Z,5.57
2023-04-08T19:00:32.389Z,5.45
2023-04-08T19:02:59.163Z,5.57
2023-04-08T19:05:26.276Z,5.70
2023-04-08T19:07:53.167Z,5.38
2023-04-08T19:10:21.687Z,5.97
2023-04-08T19:12:48.380Z,6.30
2023-04-08T19:15:15.130Z,5.25
2023-04-08T19:17:41.879Z,5.50
2023-04-08T19:20:08.983Z,5.97
2023-04-08T19:22:35.666Z,5.63
2023-04-08T19:25:02.290Z,5.75
2023-04-08T19:27:29.051Z,6.13
2023-04-08T19:29:55.918Z,6.60
2023-04-08T19:32:22.710Z,5.75
2023-04-08T19:34:49.448Z,6.60
2023-04-08T19:37:16.182Z,5.45
2023-04-08T19:39:42.841Z,6.00
2023-04-08T19:42:10.921Z,6.40
2023-04-08T19:44:38.029Z,6.15
2023-04-08T19:47:04.938Z,5.93
2023-04-08T19:49:32.159Z,5.55
2023-04-08T19:51:58.977Z,5.72
2023-04-08T19:54:25.624Z,6.53
2023-04-08T19:56:52.333Z,6.30
2023-04-08T19:59:19.411Z,5.75
2023-04-08T20:01:47.258Z,5.95
2023-04-08T20:04:13.918Z,5.75
2023-04-08T20:06:41.022Z,6.22
2023-04-08T20:09:07.698Z,5.47
2023-04-08T20:11:34.664Z,6.30
2023-04-08T20:14:01.590Z,5.60
2023-04-08T20:16:28.294Z,5.82
2023-04-08T20:18:54.959Z,5.93
2023-04-08T20:21:21.730Z,6.40
2023-04-08T20:23:48.363Z,5.63
2023-04-08T20:26:15.703Z,5.90
2023-04-08T20:28:43.600Z,5.82
2023-04-08T20:31:10.525Z,5.90
2023-04-08T20:33:44.326Z,5.38
2023-04-08T20:36:14.190Z,6.53
2023-04-08T20:38:42.786Z,5.40
2023-04-08T20:41:09.767Z,6.22
2023-04-08T20:43:36.787Z,5.72
2023-04-08T20:46:03.505Z,6.45
2023-04-08T20:48:30.137Z,6.13
2023-04-08T20:50:57.575Z,6.88
2023-04-08T20:53:24.659Z,6.72
2023-04-08T20:55:51.849Z,5.78
2023-04-08T20:58:18.596Z,5.97
2023-04-08T21:00:47.562Z,6.15
2023-04-08T21:03:14.841Z,6.22
2023-04-08T21:05:41.909Z,6.78
2023-04-08T21:08:09.123Z,6.18
2023-04-08T21:10:35.865Z,6.22
2023-04-08T21:13:02.550Z,6.78
2023-04-08T21:15:29.393Z,6.55
2023-04-08T21:17:56.180Z,6.65
2023-04-08T21:20:23.208Z,5.93
2023-04-08T21:22:50.353Z,5.88
2023-04-08T21:25:18.075Z,6.35
2023-04-08T21:27:44.894Z,6.55
2023-04-08T21:30:11.881Z,6.20
2023-04-08T21:32:38.912Z,6.63
2023-04-08T21:35:05.893Z,6.40
2023-04-08T21:37:32.707Z,6.75
2023-04-08T21:39:59.377Z,7.20
2023-04-08T21:42:27.494Z,6.95
2023-04-08T21:44:54.111Z,6.40
2023-04-08T21:47:20.842Z,6.80
2023-04-08T21:49:48.561Z,6.63
2023-04-08T21:52:15.684Z,6.20
2023-04-08T21:54:42.421Z,6.68
2023-04-08T21:57:09.318Z,7.55
2023-04-08T21:59:36.051Z,6.82
2023-04-08T22:02:04.618Z,6.55
2023-04-08T22:04:31.291Z,6.95
2023-04-08T22:06:58.269Z,7.18
2023-04-08T22:09:24.972Z,6.90
2023-04-08T22:11:51.695Z,6.97
2023-04-08T22:14:18.486Z,6.32
2023-04-08T22:16:45.376Z,7.13
2023-04-08T22:19:12.114Z,6.97
2023-04-08T22:21:39.047Z,6.40
2023-04-08T22:24:06.142Z,6.55
2023-04-08T22:26:33.128Z,6.70
2023-04-08T22:28:59.781Z,6.70
2023-04-08T22:31:27.148Z,6.32
2023-04-08T22:33:53.826Z,6.38
2023-04-08T22:36:20.612Z,6.22
2023-04-08T22:38:47.284Z,6.18
2023-04-08T22:41:21.718Z,6.30
2023-04-08T22:43:49.217Z,6.32
2023-04-08T22:46:18.215Z,6.40
2023-04-08T22:48:45.511Z,6.82
2023-04-08T22:51:12.789Z,6.30
2023-04-08T22:53:39.689Z,5.68
2023-04-08T22:56:06.660Z,6.55
2023-04-08T22:58:33.330Z,6.22
2023-04-08T23:01:00.130Z,6.10
2023-04-08T23:03:26.903Z,5.65
2023-04-08T23:05:53.737Z,5.78
2023-04-08T23:08:20.444Z,6.18
2023-04-08T23:10:47.091Z,5.72
2023-04-08T23:13:14.387Z,6.20
2023-04-08T23:15:41.168Z,5.72
2023-04-08T23:18:07.809Z,6.28
2023-04-08T23:20:35.659Z,6.07
2023-04-08T23:23:03.551Z,5.93
2023-04-08T23:25:30.569Z,5.25
2023-04-08T23:27:57.369Z,5.97
2023-04-08T23:30:24.109Z,5.55
2023-04-08T23:32:50.957Z,5.95
2023-04-08T23:35:17.786Z,5.45
2023-04-08T23:37:44.456Z,5.65
2023-04-08T23:40:11.326Z,5.18
2023-04-08T23:42:37.946Z,5.30
2023-04-08T23:45:05.593Z,5.78
2023-04-08T23:47:32.311Z,5.95
2023-04-08T23:49:58.952Z,5.28
2023-04-08T23:52:25.967Z,5.03
2023-04-08T23:54:52.682Z,5.35
2023-04-08T23:57:22.283Z,5.50
2023-04-08T23:59:48.964Z,5.93
